sensor_id;sensor_type;location;lat;lon;timestamp;temperature;humidity
15172;DHT22;7686;52.184;9.280;2022-12-18T00:02:11;25.80;30.40
15172;DHT22;7686;52.184;9.280;2022-12-18T00:04:38;25.80;30.30
15172;DHT22;7686;52.184;9.280;2022-12-18T00:07:04;25.80;30.20
15172;DHT22;7686;52.184;9.280;2022-12-18T00:09:31;25.80;30.30
15172;DHT22;7686;52.184;9.280;2022-12-18T00:12:06;25.80;30.30
15172;DHT22;7686;52.184;9.280;2022-12-18T00:14:41;25.80;30.30
15172;DHT22;7686;52.184;9.280;2022-12-18T00:17:08;25.80;30.30
15172;DHT22;7686;52.184;9.280;2022-12-18T00:19:35;25.80;30.40
15172;DHT22;7686;52.184;9.280;2022-12-18T00:22:02;25.80;30.40
15172;DHT22;7686;52.184;9.280;2022-12-18T00:24:28;25.80;30.40
15172;DHT22;7686;52.184;9.280;2022-12-18T00:26:55;25.80;30.50
15172;DHT22;7686;52.184;9.280;2022-12-18T00:29:22;25.80;30.50
15172;DHT22;7686;52.184;9.280;2022-12-18T00:31:48;25.80;30.50
15172;DHT22;7686;52.184;9.280;2022-12-18T00:34:15;25.80;30.50
15172;DHT22;7686;52.184;9.280;2022-12-18T00:36:42;25.80;30.60
15172;DHT22;7686;52.184;9.280;2022-12-18T00:39:10;25.80;30.50
15172;DHT22;7686;52.184;9.280;2022-12-18T00:41:37;25.80;30.50
15172;DHT22;7686;52.184;9.280;2022-12-18T00:44:22;25.80;30.60
15172;DHT22;7686;52.184;9.280;2022-12-18T00:46:49;25.80;30.60
15172;DHT22;7686;52.184;9.280;2022-12-18T00:49:17;25.90;30.70
15172;DHT22;7686;52.184;9.280;2022-12-18T00:51:45;25.80;30.60
15172;DHT22;7686;52.184;9.280;2022-12-18T00:54:11;25.80;30.60
15172;DHT22;7686;52.184;9.280;2022-12-18T00:56:39;25.80;30.60
15172;DHT22;7686;52.184;9.280;2022-12-18T00:59:14;25.80;30.60
15172;DHT22;7686;52.184;9.280;2022-12-18T01:01:41;25.90;30.70
15172;DHT22;7686;52.184;9.280;2022-12-18T01:04:09;25.90;30.70
15172;DHT22;7686;52.184;9.280;2022-12-18T01:06:35;25.80;30.60
15172;DHT22;7686;52.184;9.280;2022-12-18T01:09:02;25.90;30.70
15172;DHT22;7686;52.184;9.280;2022-12-18T01:11:29;25.90;30.70
15172;DHT22;7686;52.184;9.280;2022-12-18T01:13:56;25.90;30.70
15172;DHT22;7686;52.184;9.280;2022-12-18T01:16:23;25.90;30.70
15172;DHT22;7686;52.184;9.280;2022-12-18T01:18:53;25.90;30.70
15172;DHT22;7686;52.184;9.280;2022-12-18T01:21:21;25.80;30.60
15172;DHT22;7686;52.184;9.280;2022-12-18T01:23:52;25.90;30.70
15172;DHT22;7686;52.184;9.280;2022-12-18T01:26:18;25.90;30.70
15172;DHT22;7686;52.184;9.280;2022-12-18T01:28:45;25.90;30.70
15172;DHT22;7686;52.184;9.280;2022-12-18T01:31:13;25.90;30.70
15172;DHT22;7686;52.184;9.280;2022-12-18T01:33:40;25.80;30.60
15172;DHT22;7686;52.184;9.280;2022-12-18T01:36:08;25.90;30.70
15172;DHT22;7686;52.184;9.280;2022-12-18T01:38:35;25.80;30.50
15172;DHT22;7686;52.184;9.280;2022-12-18T01:41:02;25.90;30.70
15172;DHT22;7686;52.184;9.280;2022-12-18T01:44:46;25.90;30.60
15172;DHT22;7686;52.184;9.280;2022-12-18T01:46:54;25.80;30.50
15172;DHT22;7686;52.184;9.280;2022-12-18T01:49:21;25.90;30.60
15172;DHT22;7686;52.184;9.280;2022-12-18T01:51:47;25.90;30.60
15172;DHT22;7686;52.184;9.280;2022-12-18T01:54:14;25.90;30.70
15172;DHT22;7686;52.184;9.280;2022-12-18T01:56:40;25.80;30.50
15172;DHT22;7686;52.184;9.280;2022-12-18T01:59:08;25.80;30.60
15172;DHT22;7686;52.184;9.280;2022-12-18T02:01:36;25.80;30.60
15172;DHT22;7686;52.184;9.280;2022-12-18T02:04:24;25.80;30.50
15172;DHT22;7686;52.184;9.280;2022-12-18T02:07:04;25.80;30.50
15172;DHT22;7686;52.184;9.280;2022-12-18T02:09:46;25.80;30.60
15172;DHT22;7686;52.184;9.280;2022-12-18T02:12:23;25.80;30.50
15172;DHT22;7686;52.184;9.280;2022-12-18T02:15:00;25.80;30.50
15172;DHT22;7686;52.184;9.280;2022-12-18T02:17:41;25.80;30.50
15172;DHT22;7686;52.184;9.280;2022-12-18T02:20:48;25.80;30.50
15172;DHT22;7686;52.184;9.280;2022-12-18T02:23:40;25.80;30.50
15172;DHT22;7686;52.184;9.280;2022-12-18T02:29:00;25.80;30.50
15172;DHT22;7686;52.184;9.280;2022-12-18T02:31:31;25.80;30.60
15172;DHT22;7686;52.184;9.280;2022-12-18T02:34:02;25.80;30.50
15172;DHT22;7686;52.184;9.280;2022-12-18T02:36:31;25.80;30.60
15172;DHT22;7686;52.184;9.280;2022-12-18T02:39:00;25.80;30.60
15172;DHT22;7686;52.184;9.280;2022-12-18T02:41:28;25.80;31.30
15172;DHT22;7686;52.184;9.280;2022-12-18T02:44:00;25.80;30.60
15172;DHT22;7686;52.184;9.280;2022-12-18T02:52:41;25.80;30.50
15172;DHT22;7686;52.184;9.280;2022-12-18T03:00:20;25.80;30.60
15172;DHT22;7686;52.184;9.280;2022-12-18T03:02:54;25.80;30.60
15172;DHT22;7686;52.184;9.280;2022-12-18T03:05:30;25.70;30.50
15172;DHT22;7686;52.184;9.280;2022-12-18T03:08:14;25.80;30.50
15172;DHT22;7686;52.184;9.280;2022-12-18T03:10:56;25.80;30.50
15172;DHT22;7686;52.184;9.280;2022-12-18T03:16:22;25.80;30.60
15172;DHT22;7686;52.184;9.280;2022-12-18T03:18:55;25.80;30.50
15172;DHT22;7686;52.184;9.280;2022-12-18T03:21:29;25.80;30.50
15172;DHT22;7686;52.184;9.280;2022-12-18T03:24:00;25.80;30.50
15172;DHT22;7686;52.184;9.280;2022-12-18T03:26:29;25.70;30.40
15172;DHT22;7686;52.184;9.280;2022-12-18T03:29:00;25.80;30.50
15172;DHT22;7686;52.184;9.280;2022-12-18T03:31:30;25.80;30.50
15172;DHT22;7686;52.184;9.280;2022-12-18T03:34:01;25.80;30.50
15172;DHT22;7686;52.184;9.280;2022-12-18T03:36:28;25.70;30.40
15172;DHT22;7686;52.184;9.280;2022-12-18T03:38:58;25.70;30.40
15172;DHT22;7686;52.184;9.280;2022-12-18T03:41:32;25.70;30.40
15172;DHT22;7686;52.184;9.280;2022-12-18T03:44:02;25.70;30.40
15172;DHT22;7686;52.184;9.280;2022-12-18T03:49:51;25.80;30.40
15172;DHT22;7686;52.184;9.280;2022-12-18T03:52:30;25.70;30.40
15172;DHT22;7686;52.184;9.280;2022-12-18T03:54:59;25.70;30.40
15172;DHT22;7686;52.184;9.280;2022-12-18T03:57:30;25.70;30.40
15172;DHT22;7686;52.184;9.280;2022-12-18T04:00:03;25.70;30.40
15172;DHT22;7686;52.184;9.280;2022-12-18T04:02:31;25.80;30.40
15172;DHT22;7686;52.184;9.280;2022-12-18T04:05:02;25.70;30.40
15172;DHT22;7686;52.184;9.280;2022-12-18T04:07:29;25.70;30.40
15172;DHT22;7686;52.184;9.280;2022-12-18T04:09:56;25.70;30.40
15172;DHT22;7686;52.184;9.280;2022-12-18T04:12:25;25.70;30.40
15172;DHT22;7686;52.184;9.280;2022-12-18T04:14:52;25.70;30.40
15172;DHT22;7686;52.184;9.280;2022-12-18T04:17:19;25.70;30.40
15172;DHT22;7686;52.184;9.280;2022-12-18T04:19:45;25.70;30.40
15172;DHT22;7686;52.184;9.280;2022-12-18T04:22:12;25.70;30.40
15172;DHT22;7686;52.184;9.280;2022-12-18T04:24:39;25.70;30.40
15172;DHT22;7686;52.184;9.280;2022-12-18T04:27:06;25.70;30.40
15172;DHT22;7686;52.184;9.280;2022-12-18T04:29:32;25.70;30.40
15172;DHT22;7686;52.184;9.280;2022-12-18T04:31:59;25.70;30.40
15172;DHT22;7686;52.184;9.280;2022-12-18T04:34:26;25.70;30.40
15172;DHT22;7686;52.184;9.280;2022-12-18T04:36:53;25.60;30.30
15172;DHT22;7686;52.184;9.280;2022-12-18T04:39:19;25.70;30.40
15172;DHT22;7686;52.184;9.280;2022-12-18T04:41:46;25.70;30.40
15172;DHT22;7686;52.184;9.280;2022-12-18T04:44:13;25.70;30.40
15172;DHT22;7686;52.184;9.280;2022-12-18T04:46:40;25.70;30.40
15172;DHT22;7686;52.184;9.280;2022-12-18T04:49:06;25.60;30.30
15172;DHT22;7686;52.184;9.280;2022-12-18T04:51:33;25.70;30.40
15172;DHT22;7686;52.184;9.280;2022-12-18T04:54:00;25.70;30.30
15172;DHT22;7686;52.184;9.280;2022-12-18T04:56:26;25.70;30.40
15172;DHT22;7686;52.184;9.280;2022-12-18T04:58:53;25.60;30.30
15172;DHT22;7686;52.184;9.280;2022-12-18T05:01:20;25.60;30.30
15172;DHT22;7686;52.184;9.280;2022-12-18T05:03:47;25.70;30.30
15172;DHT22;7686;52.184;9.280;2022-12-18T05:06:14;25.60;30.30
15172;DHT22;7686;52.184;9.280;2022-12-18T05:08:41;25.70;30.30
15172;DHT22;7686;52.184;9.280;2022-12-18T05:11:13;25.60;30.30
15172;DHT22;7686;52.184;9.280;2022-12-18T05:13:43;25.60;30.20
15172;DHT22;7686;52.184;9.280;2022-12-18T05:16:11;25.70;30.30
15172;DHT22;7686;52.184;9.280;2022-12-18T05:18:38;25.60;30.30
15172;DHT22;7686;52.184;9.280;2022-12-18T05:21:05;25.60;30.30
15172;DHT22;7686;52.184;9.280;2022-12-18T05:23:32;25.60;30.30
15172;DHT22;7686;52.184;9.280;2022-12-18T05:26:00;25.60;30.30
15172;DHT22;7686;52.184;9.280;2022-12-18T05:28:29;25.60;30.30
15172;DHT22;7686;52.184;9.280;2022-12-18T05:30:59;25.60;30.30
15172;DHT22;7686;52.184;9.280;2022-12-18T05:33:29;25.60;30.30
15172;DHT22;7686;52.184;9.280;2022-12-18T05:35:58;25.60;30.30
15172;DHT22;7686;52.184;9.280;2022-12-18T05:38:26;25.70;30.30
15172;DHT22;7686;52.184;9.280;2022-12-18T05:40:54;25.60;30.20
15172;DHT22;7686;52.184;9.280;2022-12-18T05:43:21;25.60;30.20
15172;DHT22;7686;52.184;9.280;2022-12-18T05:45:49;25.60;30.20
15172;DHT22;7686;52.184;9.280;2022-12-18T05:48:17;25.60;30.30
15172;DHT22;7686;52.184;9.280;2022-12-18T05:50:45;25.60;30.20
15172;DHT22;7686;52.184;9.280;2022-12-18T05:53:13;25.60;30.20
15172;DHT22;7686;52.184;9.280;2022-12-18T05:55:42;25.60;30.20
15172;DHT22;7686;52.184;9.280;2022-12-18T05:58:10;25.60;30.20
15172;DHT22;7686;52.184;9.280;2022-12-18T06:00:39;25.60;30.20
15172;DHT22;7686;52.184;9.280;2022-12-18T06:03:07;25.60;30.20
15172;DHT22;7686;52.184;9.280;2022-12-18T06:05:40;25.70;30.30
15172;DHT22;7686;52.184;9.280;2022-12-18T06:08:07;25.60;30.20
15172;DHT22;7686;52.184;9.280;2022-12-18T06:10:33;25.60;30.30
15172;DHT22;7686;52.184;9.280;2022-12-18T06:13:00;25.60;30.20
15172;DHT22;7686;52.184;9.280;2022-12-18T06:15:27;25.60;30.20
15172;DHT22;7686;52.184;9.280;2022-12-18T06:17:54;25.60;30.20
15172;DHT22;7686;52.184;9.280;2022-12-18T06:20:20;25.60;30.20
15172;DHT22;7686;52.184;9.280;2022-12-18T06:22:47;25.60;30.20
15172;DHT22;7686;52.184;9.280;2022-12-18T06:25:14;25.60;30.20
15172;DHT22;7686;52.184;9.280;2022-12-18T06:27:40;25.60;30.20
15172;DHT22;7686;52.184;9.280;2022-12-18T06:30:09;25.60;30.30
15172;DHT22;7686;52.184;9.280;2022-12-18T06:32:35;25.60;30.20
15172;DHT22;7686;52.184;9.280;2022-12-18T06:35:02;25.60;30.20
15172;DHT22;7686;52.184;9.280;2022-12-18T06:37:30;25.60;30.20
15172;DHT22;7686;52.184;9.280;2022-12-18T06:39:57;25.60;30.20
15172;DHT22;7686;52.184;9.280;2022-12-18T06:42:25;25.60;30.20
15172;DHT22;7686;52.184;9.280;2022-12-18T06:44:51;25.60;30.20
15172;DHT22;7686;52.184;9.280;2022-12-18T06:47:18;25.60;30.30
15172;DHT22;7686;52.184;9.280;2022-12-18T06:49:45;25.50;30.20
15172;DHT22;7686;52.184;9.280;2022-12-18T06:52:11;25.60;30.20
15172;DHT22;7686;52.184;9.280;2022-12-18T06:54:38;25.50;30.20
15172;DHT22;7686;52.184;9.280;2022-12-18T06:57:05;25.60;30.30
15172;DHT22;7686;52.184;9.280;2022-12-18T06:59:32;25.50;30.20
15172;DHT22;7686;52.184;9.280;2022-12-18T07:01:58;25.50;30.90
15172;DHT22;7686;52.184;9.280;2022-12-18T07:04:30;25.60;30.30
15172;DHT22;7686;52.184;9.280;2022-12-18T07:06:57;25.50;30.20
15172;DHT22;7686;52.184;9.280;2022-12-18T07:09:24;25.50;30.20
15172;DHT22;7686;52.184;9.280;2022-12-18T07:11:52;25.50;30.20
15172;DHT22;7686;52.184;9.280;2022-12-18T07:14:18;25.50;30.20
15172;DHT22;7686;52.184;9.280;2022-12-18T07:16:45;25.60;30.30
15172;DHT22;7686;52.184;9.280;2022-12-18T07:19:12;25.60;30.20
15172;DHT22;7686;52.184;9.280;2022-12-18T07:21:39;25.60;29.80
15172;DHT22;7686;52.184;9.280;2022-12-18T07:24:06;25.60;29.20
15172;DHT22;7686;52.184;9.280;2022-12-18T07:26:33;25.50;28.90
15172;DHT22;7686;52.184;9.280;2022-12-18T07:28:59;25.60;28.90
15172;DHT22;7686;52.184;9.280;2022-12-18T07:31:26;25.50;28.90
15172;DHT22;7686;52.184;9.280;2022-12-18T07:33:53;25.40;29.00
15172;DHT22;7686;52.184;9.280;2022-12-18T07:36:23;25.50;29.20
15172;DHT22;7686;52.184;9.280;2022-12-18T07:38:50;25.50;29.20
15172;DHT22;7686;52.184;9.280;2022-12-18T07:41:19;25.40;29.10
15172;DHT22;7686;52.184;9.280;2022-12-18T07:43:46;25.50;29.00
15172;DHT22;7686;52.184;9.280;2022-12-18T07:46:13;25.40;28.90
15172;DHT22;7686;52.184;9.280;2022-12-18T07:48:41;25.40;28.90
15172;DHT22;7686;52.184;9.280;2022-12-18T07:51:09;25.40;29.00
15172;DHT22;7686;52.184;9.280;2022-12-18T07:53:39;25.40;29.10
15172;DHT22;7686;52.184;9.280;2022-12-18T07:56:09;25.40;29.10
15172;DHT22;7686;52.184;9.280;2022-12-18T07:58:54;25.40;29.20
15172;DHT22;7686;52.184;9.280;2022-12-18T08:01:21;25.40;29.30
15172;DHT22;7686;52.184;9.280;2022-12-18T08:03:48;25.40;29.30
15172;DHT22;7686;52.184;9.280;2022-12-18T08:06:18;25.40;29.40
15172;DHT22;7686;52.184;9.280;2022-12-18T08:08:48;25.40;29.40
15172;DHT22;7686;52.184;9.280;2022-12-18T08:11:15;25.40;29.40
15172;DHT22;7686;52.184;9.280;2022-12-18T08:13:42;25.40;29.50
15172;DHT22;7686;52.184;9.280;2022-12-18T08:16:09;25.40;29.50
15172;DHT22;7686;52.184;9.280;2022-12-18T08:18:37;25.40;29.50
15172;DHT22;7686;52.184;9.280;2022-12-18T08:21:13;25.50;29.60
15172;DHT22;7686;52.184;9.280;2022-12-18T08:23:41;25.50;29.60
15172;DHT22;7686;52.184;9.280;2022-12-18T08:26:10;25.50;29.70
15172;DHT22;7686;52.184;9.280;2022-12-18T08:28:37;25.50;29.70
15172;DHT22;7686;52.184;9.280;2022-12-18T08:31:04;25.60;29.70
15172;DHT22;7686;52.184;9.280;2022-12-18T08:33:31;25.60;29.80
15172;DHT22;7686;52.184;9.280;2022-12-18T08:35:58;25.60;29.90
15172;DHT22;7686;52.184;9.280;2022-12-18T08:38:25;25.60;29.90
15172;DHT22;7686;52.184;9.280;2022-12-18T08:41:03;25.60;29.90
15172;DHT22;7686;52.184;9.280;2022-12-18T08:43:30;25.60;29.90
15172;DHT22;7686;52.184;9.280;2022-12-18T08:46:38;25.80;30.00
15172;DHT22;7686;52.184;9.280;2022-12-18T08:49:06;25.80;30.00
15172;DHT22;7686;52.184;9.280;2022-12-18T08:51:33;25.80;30.00
15172;DHT22;7686;52.184;9.280;2022-12-18T08:54:00;25.80;30.00
15172;DHT22;7686;52.184;9.280;2022-12-18T08:56:28;25.80;29.60
15172;DHT22;7686;52.184;9.280;2022-12-18T08:58:56;25.80;30.00
15172;DHT22;7686;52.184;9.280;2022-12-18T09:01:23;25.90;30.00
15172;DHT22;7686;52.184;9.280;2022-12-18T09:03:50;26.00;30.00
15172;DHT22;7686;52.184;9.280;2022-12-18T09:06:19;25.90;30.00
15172;DHT22;7686;52.184;9.280;2022-12-18T09:08:46;26.00;30.00
15172;DHT22;7686;52.184;9.280;2022-12-18T09:11:21;25.90;30.00
15172;DHT22;7686;52.184;9.280;2022-12-18T09:13:49;26.10;30.20
15172;DHT22;7686;52.184;9.280;2022-12-18T09:16:15;26.10;30.10
15172;DHT22;7686;52.184;9.280;2022-12-18T09:18:42;26.20;30.20
15172;DHT22;7686;52.184;9.280;2022-12-18T09:21:18;26.20;30.20
15172;DHT22;7686;52.184;9.280;2022-12-18T09:23:50;26.20;31.00
15172;DHT22;7686;52.184;9.280;2022-12-18T09:26:16;26.30;30.30
15172;DHT22;7686;52.184;9.280;2022-12-18T09:28:43;26.30;30.30
15172;DHT22;7686;52.184;9.280;2022-12-18T09:31:11;26.30;30.30
15172;DHT22;7686;52.184;9.280;2022-12-18T09:33:38;26.40;30.40
15172;DHT22;7686;52.184;9.280;2022-12-18T09:36:09;26.40;30.40
15172;DHT22;7686;52.184;9.280;2022-12-18T09:38:36;26.40;30.40
15172;DHT22;7686;52.184;9.280;2022-12-18T09:41:14;26.50;30.50
15172;DHT22;7686;52.184;9.280;2022-12-18T09:43:46;26.50;30.40
15172;DHT22;7686;52.184;9.280;2022-12-18T09:46:21;26.60;30.40
15172;DHT22;7686;52.184;9.280;2022-12-18T09:48:54;26.70;30.20
15172;DHT22;7686;52.184;9.280;2022-12-18T09:51:35;26.70;29.60
15172;DHT22;7686;52.184;9.280;2022-12-18T09:54:11;26.70;28.90
15172;DHT22;7686;52.184;9.280;2022-12-18T09:56:41;26.70;28.10
15172;DHT22;7686;52.184;9.280;2022-12-18T10:01:58;26.70;28.20
15172;DHT22;7686;52.184;9.280;2022-12-18T10:04:29;26.70;28.50
15172;DHT22;7686;52.184;9.280;2022-12-18T10:07:03;26.70;28.50
15172;DHT22;7686;52.184;9.280;2022-12-18T10:12:32;26.70;28.50
15172;DHT22;7686;52.184;9.280;2022-12-18T10:15:14;26.70;28.60
15172;DHT22;7686;52.184;9.280;2022-12-18T10:17:51;26.70;28.70
15172;DHT22;7686;52.184;9.280;2022-12-18T10:20:47;26.70;28.80
15172;DHT22;7686;52.184;9.280;2022-12-18T10:23:41;26.70;28.90
15172;DHT22;7686;52.184;9.280;2022-12-18T10:26:14;26.80;29.00
15172;DHT22;7686;52.184;9.280;2022-12-18T10:28:42;26.80;29.10
15172;DHT22;7686;52.184;9.280;2022-12-18T10:31:23;26.80;29.10
15172;DHT22;7686;52.184;9.280;2022-12-18T10:33:53;26.90;29.20
15172;DHT22;7686;52.184;9.280;2022-12-18T10:36:22;26.90;29.30
15172;DHT22;7686;52.184;9.280;2022-12-18T10:38:49;27.00;29.40
15172;DHT22;7686;52.184;9.280;2022-12-18T10:43:47;27.10;29.50
15172;DHT22;7686;52.184;9.280;2022-12-18T10:46:17;27.10;29.50
15172;DHT22;7686;52.184;9.280;2022-12-18T10:48:55;27.10;29.50
15172;DHT22;7686;52.184;9.280;2022-12-18T10:51:36;27.20;29.50
15172;DHT22;7686;52.184;9.280;2022-12-18T10:54:06;27.20;29.50
15172;DHT22;7686;52.184;9.280;2022-12-18T10:56:38;27.30;29.60
15172;DHT22;7686;52.184;9.280;2022-12-18T10:59:09;27.30;29.60
15172;DHT22;7686;52.184;9.280;2022-12-18T11:01:48;27.40;29.60
15172;DHT22;7686;52.184;9.280;2022-12-18T11:04:30;27.40;29.60
15172;DHT22;7686;52.184;9.280;2022-12-18T11:07:02;27.40;29.70
15172;DHT22;7686;52.184;9.280;2022-12-18T11:09:31;27.40;29.60
15172;DHT22;7686;52.184;9.280;2022-12-18T11:12:04;27.40;29.50
15172;DHT22;7686;52.184;9.280;2022-12-18T11:14:41;27.50;29.60
15172;DHT22;7686;52.184;9.280;2022-12-18T11:17:30;27.50;29.70
15172;DHT22;7686;52.184;9.280;2022-12-18T11:20:22;27.60;29.70
15172;DHT22;7686;52.184;9.280;2022-12-18T11:23:10;27.60;29.70
15172;DHT22;7686;52.184;9.280;2022-12-18T11:25:38;27.60;29.70
15172;DHT22;7686;52.184;9.280;2022-12-18T11:36:49;27.60;29.50
15172;DHT22;7686;52.184;9.280;2022-12-18T11:39:37;27.60;29.50
15172;DHT22;7686;52.184;9.280;2022-12-18T11:42:12;27.70;29.60
15172;DHT22;7686;52.184;9.280;2022-12-18T11:44:59;27.60;29.60
15172;DHT22;7686;52.184;9.280;2022-12-18T11:47:44;27.60;29.60
15172;DHT22;7686;52.184;9.280;2022-12-18T11:50:25;27.60;29.70
15172;DHT22;7686;52.184;9.280;2022-12-18T11:52:52;27.60;29.70
15172;DHT22;7686;52.184;9.280;2022-12-18T11:55:41;27.60;29.80
15172;DHT22;7686;52.184;9.280;2022-12-18T12:01:04;27.60;29.90
15172;DHT22;7686;52.184;9.280;2022-12-18T12:09:28;27.60;29.90
15172;DHT22;7686;52.184;9.280;2022-12-18T12:17:14;27.60;30.00
15172;DHT22;7686;52.184;9.280;2022-12-18T12:20:18;27.60;30.00
15172;DHT22;7686;52.184;9.280;2022-12-18T12:28:32;27.60;30.00
15172;DHT22;7686;52.184;9.280;2022-12-18T12:33:52;27.60;30.00
15172;DHT22;7686;52.184;9.280;2022-12-18T12:39:28;27.50;30.00
15172;DHT22;7686;52.184;9.280;2022-12-18T12:41:57;27.50;30.00
15172;DHT22;7686;52.184;9.280;2022-12-18T12:44:52;27.60;30.00
15172;DHT22;7686;52.184;9.280;2022-12-18T12:47:42;27.50;30.00
15172;DHT22;7686;52.184;9.280;2022-12-18T12:50:17;27.50;30.00
15172;DHT22;7686;52.184;9.280;2022-12-18T12:52:52;27.50;30.00
15172;DHT22;7686;52.184;9.280;2022-12-18T12:55:26;27.50;30.00
15172;DHT22;7686;52.184;9.280;2022-12-18T13:01:08;27.40;30.00
15172;DHT22;7686;52.184;9.280;2022-12-18T13:09:10;27.40;30.00
15172;DHT22;7686;52.184;9.280;2022-12-18T13:11:42;27.40;30.00
15172;DHT22;7686;52.184;9.280;2022-12-18T13:14:36;27.40;30.00
15172;DHT22;7686;52.184;9.280;2022-12-18T13:20:08;27.30;30.60
15172;DHT22;7686;52.184;9.280;2022-12-18T13:22:53;27.30;30.00
15172;DHT22;7686;52.184;9.280;2022-12-18T13:25:34;27.30;30.00
15172;DHT22;7686;52.184;9.280;2022-12-18T13:28:07;27.30;30.00
15172;DHT22;7686;52.184;9.280;2022-12-18T13:35:51;27.30;29.90
15172;DHT22;7686;52.184;9.280;2022-12-18T13:38:34;27.30;29.90
15172;DHT22;7686;52.184;9.280;2022-12-18T13:41:04;27.20;29.70
15172;DHT22;7686;52.184;9.280;2022-12-18T13:51:41;27.20;29.70
15172;DHT22;7686;52.184;9.280;2022-12-18T13:54:34;27.20;29.70
15172;DHT22;7686;52.184;9.280;2022-12-18T13:57:03;27.20;29.70
15172;DHT22;7686;52.184;9.280;2022-12-18T13:59:37;27.20;29.70
15172;DHT22;7686;52.184;9.280;2022-12-18T14:02:22;27.10;29.70
15172;DHT22;7686;52.184;9.280;2022-12-18T14:04:50;27.10;29.70
15172;DHT22;7686;52.184;9.280;2022-12-18T14:07:22;27.10;29.80
15172;DHT22;7686;52.184;9.280;2022-12-18T14:09:52;27.10;29.80
15172;DHT22;7686;52.184;9.280;2022-12-18T14:12:33;27.10;29.80
15172;DHT22;7686;52.184;9.280;2022-12-18T14:21:29;27.10;29.80
15172;DHT22;7686;52.184;9.280;2022-12-18T14:24:19;27.10;29.80
15172;DHT22;7686;52.184;9.280;2022-12-18T14:26:50;27.10;29.80
15172;DHT22;7686;52.184;9.280;2022-12-18T14:29:28;27.00;29.80
15172;DHT22;7686;52.184;9.280;2022-12-18T14:32:18;27.00;29.80
15172;DHT22;7686;52.184;9.280;2022-12-18T14:37:18;27.00;29.90
15172;DHT22;7686;52.184;9.280;2022-12-18T14:40:01;27.10;30.00
15172;DHT22;7686;52.184;9.280;2022-12-18T14:42:36;27.00;30.00
15172;DHT22;7686;52.184;9.280;2022-12-18T14:48:41;27.00;30.00
15172;DHT22;7686;52.184;9.280;2022-12-18T14:51:16;27.00;30.00
15172;DHT22;7686;52.184;9.280;2022-12-18T14:53:49;27.00;30.10
15172;DHT22;7686;52.184;9.280;2022-12-18T14:56:33;27.00;30.10
15172;DHT22;7686;52.184;9.280;2022-12-18T14:59:20;27.00;30.10
15172;DHT22;7686;52.184;9.280;2022-12-18T15:02:21;26.90;30.10
15172;DHT22;7686;52.184;9.280;2022-12-18T15:05:00;26.90;30.10
15172;DHT22;7686;52.184;9.280;2022-12-18T15:07:43;26.90;30.10
15172;DHT22;7686;52.184;9.280;2022-12-18T15:10:19;26.90;30.10
15172;DHT22;7686;52.184;9.280;2022-12-18T15:26:05;26.90;30.10
15172;DHT22;7686;52.184;9.280;2022-12-18T15:28:49;26.80;30.00
15172;DHT22;7686;52.184;9.280;2022-12-18T15:36:21;26.80;30.00
15172;DHT22;7686;52.184;9.280;2022-12-18T15:38:54;26.80;30.00
15172;DHT22;7686;52.184;9.280;2022-12-18T15:41:26;26.80;30.10
15172;DHT22;7686;52.184;9.280;2022-12-18T15:43:53;26.90;30.10
15172;DHT22;7686;52.184;9.280;2022-12-18T15:46:22;26.80;30.10
15172;DHT22;7686;52.184;9.280;2022-12-18T15:48:54;26.80;30.10
15172;DHT22;7686;52.184;9.280;2022-12-18T15:51:29;26.70;30.00
15172;DHT22;7686;52.184;9.280;2022-12-18T15:54:00;26.70;30.40
15172;DHT22;7686;52.184;9.280;2022-12-18T15:56:27;26.70;30.00
15172;DHT22;7686;52.184;9.280;2022-12-18T15:59:16;26.70;30.00
15172;DHT22;7686;52.184;9.280;2022-12-18T16:01:45;26.70;30.00
15172;DHT22;7686;52.184;9.280;2022-12-18T16:04:14;26.70;30.00
15172;DHT22;7686;52.184;9.280;2022-12-18T16:06:42;26.70;30.10
15172;DHT22;7686;52.184;9.280;2022-12-18T16:09:28;26.70;30.00
15172;DHT22;7686;52.184;9.280;2022-12-18T16:11:55;26.70;30.00
15172;DHT22;7686;52.184;9.280;2022-12-18T16:14:30;26.70;30.00
15172;DHT22;7686;52.184;9.280;2022-12-18T16:17:00;26.70;30.00
15172;DHT22;7686;52.184;9.280;2022-12-18T16:19:28;26.70;30.00
15172;DHT22;7686;52.184;9.280;2022-12-18T16:21:57;26.60;30.00
15172;DHT22;7686;52.184;9.280;2022-12-18T16:24:26;26.60;30.00
15172;DHT22;7686;52.184;9.280;2022-12-18T16:26:53;26.60;30.00
15172;DHT22;7686;52.184;9.280;2022-12-18T16:29:20;26.60;30.00
15172;DHT22;7686;52.184;9.280;2022-12-18T16:31:51;26.60;30.00
15172;DHT22;7686;52.184;9.280;2022-12-18T16:36:50;26.60;30.00
15172;DHT22;7686;52.184;9.280;2022-12-18T16:39:17;26.50;30.00
15172;DHT22;7686;52.184;9.280;2022-12-18T16:41:44;26.50;30.00
15172;DHT22;7686;52.184;9.280;2022-12-18T16:44:11;26.50;30.00
15172;DHT22;7686;52.184;9.280;2022-12-18T16:46:38;26.50;30.00
15172;DHT22;7686;52.184;9.280;2022-12-18T16:49:05;26.50;30.00
15172;DHT22;7686;52.184;9.280;2022-12-18T16:51:32;26.50;30.00
15172;DHT22;7686;52.184;9.280;2022-12-18T16:53:59;26.50;30.00
15172;DHT22;7686;52.184;9.280;2022-12-18T16:56:28;26.50;30.00
15172;DHT22;7686;52.184;9.280;2022-12-18T16:58:57;26.50;30.00
15172;DHT22;7686;52.184;9.280;2022-12-18T17:01:26;26.50;30.00
15172;DHT22;7686;52.184;9.280;2022-12-18T17:04:01;26.50;30.00
15172;DHT22;7686;52.184;9.280;2022-12-18T17:06:31;26.50;30.00
15172;DHT22;7686;52.184;9.280;2022-12-18T17:09:07;26.40;30.00
15172;DHT22;7686;52.184;9.280;2022-12-18T17:11:34;26.50;30.00
15172;DHT22;7686;52.184;9.280;2022-12-18T17:14:14;26.50;30.00
15172;DHT22;7686;52.184;9.280;2022-12-18T17:16:41;26.50;30.00
15172;DHT22;7686;52.184;9.280;2022-12-18T17:19:07;26.40;30.00
15172;DHT22;7686;52.184;9.280;2022-12-18T17:21:43;26.50;30.00
15172;DHT22;7686;52.184;9.280;2022-12-18T17:24:11;26.40;30.00
15172;DHT22;7686;52.184;9.280;2022-12-18T17:26:37;26.50;30.00
15172;DHT22;7686;52.184;9.280;2022-12-18T17:29:05;26.40;30.00
15172;DHT22;7686;52.184;9.280;2022-12-18T17:31:32;26.40;30.00
15172;DHT22;7686;52.184;9.280;2022-12-18T17:34:00;26.40;30.00
15172;DHT22;7686;52.184;9.280;2022-12-18T17:36:28;26.40;30.00
15172;DHT22;7686;52.184;9.280;2022-12-18T17:38:58;26.40;30.00
15172;DHT22;7686;52.184;9.280;2022-12-18T17:41:26;26.40;30.00
15172;DHT22;7686;52.184;9.280;2022-12-18T17:43:54;26.40;30.00
15172;DHT22;7686;52.184;9.280;2022-12-18T17:46:21;26.40;30.00
15172;DHT22;7686;52.184;9.280;2022-12-18T17:48:49;26.40;30.00
15172;DHT22;7686;52.184;9.280;2022-12-18T17:51:16;26.40;30.00
15172;DHT22;7686;52.184;9.280;2022-12-18T17:53:43;26.50;30.00
15172;DHT22;7686;52.184;9.280;2022-12-18T17:56:12;26.40;30.00
15172;DHT22;7686;52.184;9.280;2022-12-18T17:58:40;26.40;30.00
15172;DHT22;7686;52.184;9.280;2022-12-18T18:01:07;26.40;30.00
15172;DHT22;7686;52.184;9.280;2022-12-18T18:03:36;26.40;29.90
15172;DHT22;7686;52.184;9.280;2022-12-18T18:06:04;26.40;29.90
15172;DHT22;7686;52.184;9.280;2022-12-18T18:08:31;26.40;30.00
15172;DHT22;7686;52.184;9.280;2022-12-18T18:11:03;26.40;30.00
15172;DHT22;7686;52.184;9.280;2022-12-18T18:13:50;26.40;29.90